createdAt,value
2022-08-01T00:00:10.818Z,27.50
2022-08-01T00:02:58.413Z,27.60
2022-08-01T00:05:46.492Z,27.90
2022-08-01T00:08:34.134Z,27.80
2022-08-01T00:11:22.425Z,27.80
2022-08-01T00:14:12.864Z,27.80
2022-08-01T00:17:06.711Z,27.70
2022-08-01T00:19:54.898Z,27.70
2022-08-01T00:22:42.590Z,27.70
2022-08-01T00:25:34.414Z,27.80
2022-08-01T00:28:22.221Z,27.70
2022-08-01T00:31:09.969Z,27.90
2022-08-01T00:33:57.450Z,27.70
2022-08-01T00:36:44.918Z,27.80
2022-08-01T00:39:34.125Z,27.90
2022-08-01T00:42:21.972Z,27.90
2022-08-01T00:45:10.209Z,27.90
2022-08-01T00:47:57.704Z,27.80
2022-08-01T00:50:46.655Z,27.80
2022-08-01T00:53:50.837Z,27.80
2022-08-01T00:56:39.515Z,27.80
2022-08-01T00:59:28.433Z,27.80
2022-08-01T01:02:17.158Z,27.80
2022-08-01T01:05:05.304Z,27.70
2022-08-01T01:08:05.854Z,27.80
2022-08-01T01:11:07.168Z,27.80
2022-08-01T01:14:03.430Z,27.80
2022-08-01T01:16:53.265Z,27.80
2022-08-01T01:19:49.198Z,27.80
2022-08-01T01:22:54.503Z,27.80
2022-08-01T01:26:26.489Z,27.70
2022-08-01T01:29:58.661Z,27.70
2022-08-01T01:32:52.937Z,27.60
2022-08-01T01:35:49.903Z,27.40
2022-08-01T01:38:46.982Z,27.40
2022-08-01T01:41:38.560Z,27.50
2022-08-01T01:44:29.259Z,27.40
2022-08-01T01:47:19.009Z,27.50
2022-08-01T01:50:10.283Z,27.50
2022-08-01T01:53:00.418Z,27.40
2022-08-01T01:55:53.732Z,27.40
2022-08-01T01:58:43.334Z,27.30
2022-08-01T02:01:57.999Z,27.30
2022-08-01T02:04:45.743Z,27.30
2022-08-01T02:07:35.816Z,27.10
2022-08-01T02:10:28.456Z,26.80
2022-08-01T02:13:17.969Z,26.70
2022-08-01T02:16:12.331Z,26.70
2022-08-01T02:19:00.915Z,26.70
2022-08-01T02:22:27.309Z,26.70
2022-08-01T02:25:26.399Z,26.80
2022-08-01T02:28:50.579Z,26.70
2022-08-01T02:31:45.533Z,26.70
2022-08-01T02:34:36.848Z,26.60
2022-08-01T02:37:28.040Z,26.60
2022-08-01T02:40:18.419Z,26.50
2022-08-01T02:43:10.315Z,26.50
2022-08-01T02:46:03.787Z,26.40
2022-08-01T02:48:56.715Z,26.40
2022-08-01T02:51:48.620Z,26.20
2022-08-01T02:54:39.944Z,26.40
2022-08-01T02:57:47.318Z,26.30
2022-08-01T03:00:38.456Z,26.40
2022-08-01T03:03:27.834Z,26.40
2022-08-01T03:06:17.774Z,26.40
2022-08-01T03:09:07.625Z,26.40
2022-08-01T03:12:00.167Z,26.40
2022-08-01T03:14:52.666Z,26.40
2022-08-01T03:17:45.184Z,26.40
2022-08-01T03:20:35.409Z,26.40
2022-08-01T03:23:37.805Z,26.40
2022-08-01T03:26:31.626Z,26.50
2022-08-01T03:29:26.639Z,26.30
2022-08-01T03:32:15.944Z,26.10
2022-08-01T03:35:04.261Z,26.30
2022-08-01T03:41:16.921Z,26.20
2022-08-01T03:44:14.620Z,26.20
2022-08-01T03:47:08.141Z,26.20
2022-08-01T03:49:58.821Z,26.10
2022-08-01T03:52:50.235Z,26.20
2022-08-01T03:55:40.240Z,26.30
2022-08-01T03:58:30.447Z,26.30
2022-08-01T04:01:20.022Z,26.50
2022-08-01T04:04:07.790Z,26.50
2022-08-01T04:06:55.557Z,26.70
2022-08-01T04:09:43.541Z,26.70
2022-08-01T04:12:31.035Z,26.70
2022-08-01T04:15:19.386Z,26.70
2022-08-01T04:18:07.821Z,26.70
2022-08-01T04:20:55.397Z,26.70
2022-08-01T04:23:46.940Z,26.70
2022-08-01T04:26:44.570Z,26.70
2022-08-01T04:29:35.481Z,26.70
2022-08-01T04:32:24.421Z,26.70
2022-08-01T04:35:23.305Z,26.60
2022-08-01T04:38:30.699Z,26.50
2022-08-01T04:41:21.156Z,26.60
2022-08-01T04:44:08.976Z,26.60
2022-08-01T04:46:57.965Z,26.70
2022-08-01T04:49:49.016Z,26.80
2022-08-01T04:52:38.522Z,26.80
2022-08-01T04:55:27.684Z,26.70
2022-08-01T04:58:18.550Z,26.80
2022-08-01T05:01:06.709Z,27.10
2022-08-01T05:03:54.178Z,27.20
2022-08-01T05:06:41.605Z,27.40
2022-08-01T05:09:31.215Z,27.60
2022-08-01T05:12:19.094Z,27.60
2022-08-01T05:15:11.814Z,27.70
2022-08-01T05:18:02.698Z,27.80
2022-08-01T05:20:50.210Z,28.00
2022-08-01T05:23:42.990Z,28.10
2022-08-01T05:26:31.045Z,28.10
2022-08-01T05:29:19.465Z,28.10
2022-08-01T05:32:08.015Z,28.30
2022-08-01T05:34:55.714Z,28.30
2022-08-01T05:37:43.236Z,28.40
2022-08-01T05:40:30.805Z,28.50
2022-08-01T05:43:18.288Z,28.50
2022-08-01T05:46:05.840Z,28.40
2022-08-01T05:48:53.428Z,28.40
2022-08-01T05:51:41.318Z,28.40
2022-08-01T05:54:29.371Z,28.40
2022-08-01T05:57:17.045Z,28.50
2022-08-01T06:00:06.406Z,28.50
2022-08-01T06:02:53.897Z,28.60
2022-08-01T06:05:41.870Z,28.80
2022-08-01T06:08:30.076Z,28.70
2022-08-01T06:11:17.612Z,28.60
2022-08-01T06:14:05.150Z,28.60
2022-08-01T06:16:52.575Z,28.80
2022-08-01T06:19:40.128Z,29.00
2022-08-01T06:22:27.971Z,29.10
2022-08-01T06:25:19.378Z,29.20
2022-08-01T06:28:08.616Z,29.30
2022-08-01T06:30:56.412Z,29.20
2022-08-01T06:33:44.000Z,29.50
2022-08-01T06:36:31.491Z,29.50
2022-08-01T06:39:19.001Z,29.70
2022-08-01T06:42:06.976Z,29.60
2022-08-01T06:44:54.689Z,29.30
2022-08-01T06:47:44.094Z,29.60
2022-08-01T06:50:33.104Z,29.70
2022-08-01T06:53:20.547Z,29.70
2022-08-01T06:56:09.850Z,29.40
2022-08-01T06:59:01.847Z,29.50
2022-08-01T07:01:49.360Z,30.10
2022-08-01T07:04:36.873Z,30.20
2022-08-01T07:07:24.440Z,30.10
2022-08-01T07:10:14.593Z,30.10
2022-08-01T07:13:02.174Z,30.10
2022-08-01T07:15:49.779Z,30.30
2022-08-01T07:18:37.280Z,30.20
2022-08-01T07:21:38.557Z,30.30
2022-08-01T07:24:30.231Z,30.40
2022-08-01T07:27:25.420Z,30.60
2022-08-01T07:30:13.931Z,30.40
2022-08-01T07:33:02.036Z,30.40
2022-08-01T07:35:50.135Z,30.50
2022-08-01T07:38:37.699Z,30.60
2022-08-01T07:41:52.778Z,30.70
2022-08-01T07:44:32.964Z,30.60
2022-08-01T07:47:26.299Z,30.60
2022-08-01T07:50:13.998Z,30.60
2022-08-01T07:53:03.580Z,31.00
2022-08-01T07:55:51.179Z,31.00
2022-08-01T07:58:38.744Z,30.80
2022-08-01T08:01:26.397Z,31.10
2022-08-01T08:04:14.060Z,30.80
2022-08-01T08:07:01.682Z,31.30
2022-08-01T08:09:51.205Z,31.70
2022-08-01T08:12:39.021Z,31.70
2022-08-01T08:15:26.524Z,32.40
2022-08-01T08:18:14.044Z,32.70
2022-08-01T08:21:06.450Z,33.00
2022-08-01T08:24:13.249Z,33.10
2022-08-01T08:27:02.739Z,32.70
2022-08-01T08:29:50.209Z,31.90
2022-08-01T08:32:38.138Z,32.60
2022-08-01T08:35:53.328Z,32.60
2022-08-01T08:38:33.275Z,32.80
2022-08-01T08:41:21.574Z,32.90
2022-08-01T08:44:11.299Z,33.10
2022-08-01T08:47:02.663Z,32.70
2022-08-01T08:49:54.298Z,32.50
2022-08-01T08:52:43.143Z,32.90
2022-08-01T08:55:30.852Z,32.70
2022-08-01T08:58:20.544Z,32.80
2022-08-01T09:01:12.027Z,32.60
2022-08-01T09:03:59.580Z,33.10
2022-08-01T09:06:47.039Z,33.00
2022-08-01T09:09:34.819Z,33.20
2022-08-01T09:12:28.709Z,32.80
2022-08-01T09:15:16.307Z,33.30
2022-08-01T09:18:03.870Z,33.50
2022-08-01T09:20:51.434Z,33.10
2022-08-01T09:23:54.459Z,32.50
2022-08-01T09:26:42.457Z,32.00
2022-08-01T09:29:38.095Z,32.30
2022-08-01T09:32:26.210Z,32.30
2022-08-01T09:35:36.336Z,32.80
2022-08-01T09:38:31.032Z,33.50
2022-08-01T09:41:37.525Z,33.60
2022-08-01T09:44:54.563Z,34.10
2022-08-01T09:47:42.764Z,33.30
2022-08-01T09:50:45.166Z,33.40
2022-08-01T09:53:51.757Z,33.50
2022-08-01T09:56:43.960Z,34.00
2022-08-01T09:59:57.866Z,33.90
2022-08-01T10:02:46.500Z,34.00
2022-08-01T10:05:37.123Z,33.60
2022-08-01T10:08:26.727Z,33.60
2022-08-01T10:11:17.652Z,33.60
2022-08-01T10:14:07.171Z,34.20
2022-08-01T10:17:04.861Z,33.60
2022-08-01T10:19:55.854Z,34.20
2022-08-01T10:22:46.335Z,34.70
2022-08-01T10:25:46.685Z,34.20
2022-08-01T10:28:39.306Z,34.90
2022-08-01T10:31:30.563Z,34.60
2022-08-01T10:34:20.873Z,35.10
2022-08-01T10:37:13.985Z,34.80
2022-08-01T10:40:28.705Z,35.50
2022-08-01T10:43:21.842Z,35.20
2022-08-01T10:46:10.694Z,34.90
2022-08-01T10:49:27.382Z,34.90
2022-08-01T10:52:22.279Z,34.80
2022-08-01T10:55:13.213Z,34.90
2022-08-01T10:58:09.505Z,34.30
2022-08-01T11:01:31.438Z,35.50
2022-08-01T11:04:20.896Z,35.60
2022-08-01T11:07:17.927Z,35.30
2022-08-01T11:10:24.251Z,35.70
2022-08-01T11:13:13.496Z,35.90
2022-08-01T11:16:29.506Z,36.40
2022-08-01T11:19:17.049Z,35.40
2022-08-01T11:22:05.148Z,35.70
2022-08-01T11:24:54.690Z,35.30
2022-08-01T11:27:44.159Z,35.00
2022-08-01T11:30:31.764Z,34.40
2022-08-01T11:33:45.858Z,34.90
2022-08-01T11:36:58.502Z,35.10
2022-08-01T11:39:42.990Z,35.10
2022-08-01T11:42:30.530Z,34.60
2022-08-01T11:45:18.706Z,34.50
2022-08-01T11:48:27.551Z,34.90
2022-08-01T11:51:24.004Z,34.10
2022-08-01T11:54:13.839Z,33.60
2022-08-01T11:57:06.184Z,34.50
2022-08-01T12:00:03.166Z,34.80
2022-08-01T12:03:01.179Z,35.20
2022-08-01T12:05:52.169Z,35.20
2022-08-01T12:08:39.834Z,36.10
2022-08-01T12:11:37.092Z,35.80
2022-08-01T12:14:25.462Z,36.30
2022-08-01T12:17:14.003Z,35.80
2022-08-01T12:20:03.717Z,36.00
2022-08-01T12:22:56.511Z,35.40
2022-08-01T12:25:49.381Z,36.10
2022-08-01T12:28:43.100Z,36.10
2022-08-01T12:31:35.974Z,35.70
2022-08-01T12:34:29.049Z,36.50
2022-08-01T12:37:17.696Z,35.70
2022-08-01T12:40:15.349Z,35.70
2022-08-01T12:43:08.738Z,35.80
2022-08-01T12:46:00.376Z,36.80
2022-08-01T12:48:48.452Z,36.70
2022-08-01T12:51:36.620Z,36.60
2022-08-01T12:54:26.294Z,36.20
2022-08-01T12:57:24.891Z,36.90
2022-08-01T13:00:14.541Z,36.50
2022-08-01T13:03:18.161Z,37.00
2022-08-01T13:06:17.815Z,36.80
2022-08-01T13:09:13.526Z,37.20
2022-08-01T13:12:10.990Z,37.40
2022-08-01T13:14:58.585Z,37.00
2022-08-01T13:17:46.169Z,35.80
2022-08-01T13:20:36.364Z,33.80
2022-08-01T13:24:03.102Z,33.00
2022-08-01T13:26:50.250Z,31.30
2022-08-01T13:29:43.957Z,30.30
2022-08-01T13:32:32.435Z,30.50
2022-08-01T13:35:21.999Z,29.60
2022-08-01T13:38:09.464Z,29.20
2022-08-01T13:41:00.404Z,29.00
2022-08-01T13:43:58.807Z,29.80
2022-08-01T13:46:51.532Z,30.10
2022-08-01T13:49:40.926Z,31.30
2022-08-01T13:52:28.847Z,31.30
2022-08-01T13:55:16.610Z,31.60
2022-08-01T13:58:04.611Z,32.10
2022-08-01T14:00:52.375Z,31.90
2022-08-01T14:03:40.166Z,31.80
2022-08-01T14:06:28.039Z,31.40
2022-08-01T14:09:24.224Z,31.70
2022-08-01T14:12:12.167Z,31.60
2022-08-01T14:15:00.304Z,32.60
2022-08-01T14:17:48.199Z,33.60
2022-08-01T14:20:37.962Z,33.40
2022-08-01T14:23:25.452Z,33.90
2022-08-01T14:26:13.411Z,34.40
2022-08-01T14:29:00.865Z,34.80
2022-08-01T14:31:48.559Z,34.30
2022-08-01T14:34:35.990Z,35.00
2022-08-01T14:37:29.338Z,35.50
2022-08-01T14:40:19.723Z,36.00
2022-08-01T14:43:25.157Z,36.20
2022-08-01T14:46:14.826Z,35.40
2022-08-01T14:49:02.429Z,35.10
2022-08-01T14:51:49.966Z,35.10
2022-08-01T14:54:37.420Z,34.10
2022-08-01T14:57:25.338Z,33.50
2022-08-01T15:00:16.242Z,33.70
2022-08-01T15:03:04.245Z,34.00
2022-08-01T15:05:52.033Z,34.70
2022-08-01T15:08:39.685Z,34.40
2022-08-01T15:11:34.547Z,33.90
2022-08-01T15:14:40.910Z,34.60
2022-08-01T15:17:32.906Z,34.60
2022-08-01T15:20:20.876Z,34.80
2022-08-01T15:23:08.446Z,34.30
2022-08-01T15:25:56.586Z,33.60
2022-08-01T15:28:44.445Z,32.90
2022-08-01T15:31:31.964Z,32.90
2022-08-01T15:34:20.044Z,33.70
2022-08-01T15:37:08.266Z,33.60
2022-08-01T15:39:56.584Z,33.50
2022-08-01T15:42:45.905Z,33.90
2022-08-01T15:45:49.480Z,34.00
2022-08-01T15:48:39.918Z,33.80
2022-08-01T15:51:27.773Z,33.90
2022-08-01T15:54:15.245Z,33.90
2022-08-01T15:57:02.977Z,34.00
2022-08-01T15:59:50.519Z,34.00
2022-08-01T16:02:38.067Z,33.50
2022-08-01T16:05:25.789Z,33.80
2022-08-01T16:08:14.466Z,33.50
2022-08-01T16:11:02.046Z,33.50
2022-08-01T16:13:49.690Z,33.30
2022-08-01T16:16:37.205Z,33.10
2022-08-01T16:19:24.767Z,33.30
2022-08-01T16:22:12.196Z,32.80
2022-08-01T16:25:00.982Z,33.20
2022-08-01T16:27:48.640Z,32.90
2022-08-01T16:30:36.134Z,32.70
2022-08-01T16:33:53.039Z,32.80
2022-08-01T16:36:31.685Z,32.90
2022-08-01T16:39:23.024Z,33.00
2022-08-01T16:42:11.433Z,32.80
2022-08-01T16:45:08.650Z,32.50
2022-08-01T16:48:00.314Z,32.70
2022-08-01T16:50:50.585Z,32.80
2022-08-01T16:53:38.115Z,32.70
2022-08-01T16:56:25.600Z,32.40
2022-08-01T16:59:13.328Z,32.60
2022-08-01T17:02:02.638Z,32.60
2022-08-01T17:04:50.353Z,32.60
2022-08-01T17:07:38.428Z,32.60
2022-08-01T17:10:26.159Z,32.70
2022-08-01T17:13:13.664Z,32.10
2022-08-01T17:16:01.346Z,31.90
2022-08-01T17:18:49.026Z,31.70
2022-08-01T17:21:40.943Z,31.40
2022-08-01T17:24:29.475Z,31.10
2022-08-01T17:27:17.282Z,31.00
2022-08-01T17:30:06.858Z,31.10
2022-08-01T17:32:54.585Z,31.20
2022-08-01T17:35:42.034Z,31.30
2022-08-01T17:38:29.536Z,31.30
2022-08-01T17:41:17.182Z,31.30
2022-08-01T17:44:05.064Z,31.30
2022-08-01T17:46:52.686Z,31.40
2022-08-01T17:49:56.764Z,31.20
2022-08-01T17:52:44.439Z,31.00
2022-08-01T17:55:53.978Z,31.10
2022-08-01T17:58:50.955Z,31.00
2022-08-01T18:01:45.232Z,30.70
2022-08-01T18:04:33.940Z,30.90
2022-08-01T18:08:01.881Z,30.70
2022-08-01T18:10:30.587Z,30.40
2022-08-01T18:13:18.434Z,30.70
2022-08-01T18:16:13.210Z,30.70
2022-08-01T18:19:01.024Z,30.80
2022-08-01T18:21:49.624Z,30.70
2022-08-01T18:24:37.120Z,30.50
2022-08-01T18:27:24.629Z,30.40
2022-08-01T18:30:32.785Z,30.10
2022-08-01T18:33:20.204Z,30.00
2022-08-01T18:36:09.767Z,30.10
2022-08-01T18:39:10.267Z,29.90
2022-08-01T18:42:00.207Z,29.90
2022-08-01T18:44:47.720Z,29.80
2022-08-01T18:47:35.696Z,29.80
2022-08-01T18:50:24.544Z,29.90
2022-08-01T18:53:12.030Z,29.80
2022-08-01T18:55:59.536Z,29.70
2022-08-01T18:58:47.024Z,29.60
2022-08-01T19:01:34.745Z,29.50
2022-08-01T19:04:22.297Z,29.50
2022-08-01T19:07:10.579Z,29.40
2022-08-01T19:09:58.055Z,29.40
2022-08-01T19:12:45.565Z,29.50
2022-08-01T19:15:34.798Z,29.30
2022-08-01T19:18:23.320Z,29.20
2022-08-01T19:21:10.975Z,29.10
2022-08-01T19:24:17.046Z,29.20
2022-08-01T19:27:14.815Z,29.10
2022-08-01T19:30:03.249Z,29.00
2022-08-01T19:32:54.964Z,29.00
2022-08-01T19:35:42.766Z,28.90
2022-08-01T19:38:32.828Z,28.80
2022-08-01T19:41:21.955Z,28.80
2022-08-01T19:44:15.300Z,28.70
2022-08-01T19:47:02.849Z,28.70
2022-08-01T19:49:50.483Z,28.60
2022-08-01T19:52:39.466Z,28.70
2022-08-01T19:55:30.130Z,28.70
2022-08-01T19:58:28.302Z,28.70
2022-08-01T20:01:16.177Z,28.60
2022-08-01T20:04:05.203Z,28.40
2022-08-01T20:06:54.321Z,28.50
2022-08-01T20:09:46.986Z,28.50
2022-08-01T20:12:35.846Z,28.50
2022-08-01T20:15:24.754Z,28.50
2022-08-01T20:18:12.295Z,28.70
2022-08-01T20:21:03.416Z,28.70
2022-08-01T20:23:53.479Z,28.80
2022-08-01T20:26:52.046Z,28.80
2022-08-01T20:29:40.287Z,28.70
2022-08-01T20:32:40.372Z,28.50
2022-08-01T20:35:53.049Z,28.40
2022-08-01T20:38:40.129Z,28.30
2022-08-01T20:41:29.159Z,28.20
2022-08-01T20:44:19.282Z,28.30
2022-08-01T20:47:08.476Z,28.40
2022-08-01T20:50:27.090Z,28.30
2022-08-01T20:53:24.575Z,28.30
2022-08-01T20:56:28.866Z,28.40
2022-08-01T20:59:56.535Z,28.60
2022-08-01T21:03:14.455Z,28.80
2022-08-01T21:06:17.877Z,29.00
2022-08-01T21:09:06.795Z,29.10
2022-08-01T21:12:07.318Z,29.20
2022-08-01T21:15:02.036Z,29.10
2022-08-01T21:18:02.670Z,29.10
2022-08-01T21:21:04.760Z,29.00
2022-08-01T21:24:04.633Z,29.00
2022-08-01T21:26:54.890Z,28.90
2022-08-01T21:29:45.465Z,28.90
2022-08-01T21:32:35.086Z,28.80
2022-08-01T21:35:26.455Z,28.60
2022-08-01T21:38:19.235Z,28.50
2022-08-01T21:41:08.636Z,28.50
2022-08-01T21:44:02.825Z,28.40
2022-08-01T21:46:52.426Z,28.30
2022-08-01T21:49:41.488Z,28.20
2022-08-01T21:52:43.415Z,28.20
2022-08-01T21:55:57.881Z,28.30
2022-08-01T21:59:16.404Z,28.20
2022-08-01T22:02:44.041Z,28.30
2022-08-01T22:05:49.744Z,28.10
2022-08-01T22:08:56.436Z,28.00
2022-08-01T22:12:00.942Z,28.10
2022-08-01T22:14:54.072Z,27.90
2022-08-01T22:17:44.877Z,27.90
2022-08-01T22:20:32.777Z,28.00
2022-08-01T22:23:23.015Z,28.00
2022-08-01T22:26:12.661Z,28.40
2022-08-01T22:29:01.883Z,28.50
2022-08-01T22:31:51.641Z,28.50
2022-08-01T22:34:39.111Z,28.50
2022-08-01T22:37:55.930Z,28.30
2022-08-01T22:40:47.799Z,28.30
2022-08-01T22:44:07.291Z,28.20
2022-08-01T22:47:00.363Z,28.10
2022-08-01T22:50:16.836Z,28.20
2022-08-01T22:53:47.075Z,27.90
2022-08-01T22:56:43.185Z,27.80
2022-08-01T22:59:42.376Z,27.70
2022-08-01T23:02:36.436Z,27.60
2022-08-01T23:05:28.241Z,27.70
2022-08-01T23:08:17.962Z,27.50
2022-08-01T23:11:07.417Z,27.20
2022-08-01T23:13:56.393Z,27.00
2022-08-01T23:16:46.501Z,26.90
2022-08-01T23:19:34.316Z,26.70
2022-08-01T23:22:23.850Z,26.80
2022-08-01T23:25:15.650Z,26.80
2022-08-01T23:28:06.141Z,26.90
2022-08-01T23:30:55.892Z,26.90
2022-08-01T23:33:43.461Z,26.80
2022-08-01T23:36:30.976Z,26.80
2022-08-01T23:39:18.506Z,26.60
2022-08-01T23:42:07.972Z,26.40
2022-08-01T23:44:56.121Z,26.50
2022-08-01T23:47:43.545Z,26.50
2022-08-01T23:50:31.092Z,26.50
2022-08-01T23:53:19.024Z,26.50
2022-08-01T23:56:08.415Z,26.40
2022-08-01T23:58:55.837Z,26.40
